Soperton, GA

04:29 AM EDT on سبتهبر 28, 2016 (GMT -0400)
South Treutlen Co. | | Change Station

Elev 236 ft 32.32 °N, 82.60 °W | Updated 4 seconds ago

Clear
صافية
67.2 °F
Feels Like 67.2 °F
N
0.0
ريح متغير ريح from شمال
Gusts 0.0 mph

هذا اليوم
High -- | Low -- °F
--% Chance of Precip.
Yesterday
High -- | Low -- °F
Precip. -- في
الضغط 29.92 في
وضوح الرؤية 10.0 أميال
سحابات صافية
نقطة الندى 61 °F
الرطوبة 81%
Rainfall 0.00 في
عمق الثلج Not available.
7:22 AM 7:18 PM
الهلال الأخير, 7% visible
METAR KVDI 280815Z AUTO 20004KT 10SM CLR 21/21 A2992 RMK AO2
الضغط 29.92 في
وضوح الرؤية 10.0 أميال
سحابات صافية
نقطة الندى 61 °F
الرطوبة 81%
Rainfall 0.00 في
عمق الثلج Not available.
7:22 AM 7:18 PM
الهلال الأخير, 7% visible
METAR KVDI 280815Z AUTO 20004KT 10SM CLR 21/21 A2992 RMK AO2

10-Day Weather Forecast

Almanac

علم الفلك

Sep. 28, 2016 Rise Set
Actual Time
Civil Twilight
Nautical Twilight
Astronomical Twilight
قمر
Length Of Visible Light
طول الیوم
Tomorrow will be .
, % of the Moon is Illuminated

Today's Extremes

State Highs State Lows

Community

WunderPhotos

Upload Photos

1,942,216 photos uploaded!

WunderBlog® & News

Nearby

جودة الهواء

  جودة الهواء AQ Index Pollutant
Not available.

عمق الثلج

Station Depth Elevation

Earthquake Activity

City Distance Mag. Time & Date
Minimum magnitude displayed is 2.5.

Coastal Water Temperatures

مكان درجات الحرارة

Stations

Nearby Weather Stations

Station Location الحرارة رياح باردة نقطة الندى الرطوبة ريح Precip. Elev تحديث Type
                   

Watches & Warnings

There are currently no watches in effect.